createdAt,value
2018-03-27T00:00:02.082Z,1.90
2018-03-27T00:01:02.090Z,1.80
2018-03-27T00:02:02.155Z,2.00
2018-03-27T00:03:02.122Z,1.90
2018-03-27T00:04:02.139Z,1.80
2018-03-27T00:05:02.168Z,2.10
2018-03-27T00:06:02.185Z,1.80
2018-03-27T00:07:02.193Z,1.80
2018-03-27T00:08:02.285Z,2.10
2018-03-27T00:09:02.227Z,2.00
2018-03-27T00:10:02.247Z,2.00
2018-03-27T00:11:02.264Z,1.90
2018-03-27T00:12:02.280Z,2.00
2018-03-27T00:13:02.298Z,1.80
2018-03-27T00:14:02.414Z,2.10
2018-03-27T00:15:02.341Z,2.50
2018-03-27T00:16:02.362Z,1.90
2018-03-27T00:17:02.373Z,2.20
2018-03-27T00:18:02.385Z,2.10
2018-03-27T00:19:02.403Z,2.10
2018-03-27T00:20:02.479Z,2.20
2018-03-27T00:21:02.437Z,2.10
2018-03-27T00:22:02.513Z,2.00
2018-03-27T00:23:02.474Z,2.20
2018-03-27T00:24:02.490Z,2.10
2018-03-27T00:25:02.512Z,2.00
2018-03-27T00:26:02.576Z,2.00
2018-03-27T00:27:02.654Z,2.00
2018-03-27T00:28:02.559Z,2.20
2018-03-27T00:29:02.577Z,2.10
2018-03-27T00:30:02.595Z,2.20
2018-03-27T00:31:02.614Z,2.30
2018-03-27T00:32:02.682Z,2.20
2018-03-27T00:33:02.669Z,2.20
2018-03-27T00:34:02.664Z,2.10
2018-03-27T00:35:02.681Z,2.40
2018-03-27T00:36:02.701Z,2.50
2018-03-27T00:37:02.719Z,2.20
2018-03-27T00:38:02.585Z,2.20
2018-03-27T00:39:02.755Z,2.30
2018-03-27T00:40:02.770Z,2.40
2018-03-27T00:41:02.786Z,2.20
2018-03-27T00:42:02.803Z,2.60
2018-03-27T00:43:02.824Z,2.30
2018-03-27T00:44:02.891Z,2.30
2018-03-27T00:45:02.858Z,2.10
2018-03-27T00:46:02.915Z,2.40
2018-03-27T00:47:02.898Z,2.50
2018-03-27T00:48:02.911Z,2.20
2018-03-27T00:49:02.927Z,2.30
2018-03-27T00:50:02.996Z,2.40
2018-03-27T00:51:02.964Z,2.30
2018-03-27T00:52:03.035Z,2.40
2018-03-27T00:53:03.002Z,2.20
2018-03-27T00:54:03.015Z,2.00
2018-03-27T00:55:03.036Z,2.60
2018-03-27T00:56:03.109Z,2.40
2018-03-27T00:57:03.071Z,2.40
2018-03-27T00:58:03.100Z,2.30
2018-03-27T00:59:03.114Z,2.40
2018-03-27T01:00:03.126Z,2.40
2018-03-27T01:01:03.140Z,2.50
2018-03-27T01:02:03.209Z,2.20
2018-03-27T01:03:03.192Z,2.00
2018-03-27T01:04:03.216Z,2.10
2018-03-27T01:05:03.219Z,2.20
2018-03-27T01:06:03.230Z,2.50
2018-03-27T01:07:03.249Z,2.40
2018-03-27T01:08:03.318Z,2.30
2018-03-27T01:09:03.285Z,2.30
2018-03-27T01:10:03.301Z,2.20
2018-03-27T01:11:03.318Z,2.30
2018-03-27T01:12:03.335Z,2.20
2018-03-27T01:13:03.353Z,2.40
2018-03-27T01:14:03.447Z,2.20
2018-03-27T01:15:03.395Z,2.10
2018-03-27T01:16:03.417Z,2.30
2018-03-27T01:17:03.501Z,2.20
2018-03-27T01:18:03.444Z,2.40
2018-03-27T01:19:03.471Z,2.40
2018-03-27T01:20:03.528Z,2.30
2018-03-27T01:21:03.513Z,2.50
2018-03-27T01:22:03.521Z,2.30
2018-03-27T01:23:03.561Z,2.50
2018-03-27T01:24:03.546Z,2.20
2018-03-27T01:25:03.563Z,2.40
2018-03-27T01:26:03.631Z,2.50
2018-03-27T01:27:03.621Z,2.20
2018-03-27T01:28:03.651Z,2.30
2018-03-27T01:29:03.656Z,2.30
2018-03-27T01:30:03.658Z,2.30
2018-03-27T01:31:03.675Z,2.20
2018-03-27T01:32:03.741Z,2.30
2018-03-27T01:33:03.710Z,2.00
2018-03-27T01:34:03.731Z,2.40
2018-03-27T01:35:03.742Z,2.40
2018-03-27T01:36:03.840Z,2.20
2018-03-27T01:37:03.778Z,2.30
2018-03-27T01:38:03.854Z,2.10
2018-03-27T01:39:03.812Z,2.40
2018-03-27T01:40:03.829Z,2.30
2018-03-27T01:41:03.844Z,2.40
2018-03-27T01:42:03.937Z,2.40
2018-03-27T01:43:03.880Z,2.50
2018-03-27T01:44:03.949Z,2.30
2018-03-27T01:45:03.925Z,2.30
2018-03-27T01:46:03.935Z,2.10
2018-03-27T01:47:03.951Z,2.50
2018-03-27T01:48:03.967Z,2.40
2018-03-27T01:49:03.989Z,2.40
2018-03-27T01:50:04.060Z,2.30
2018-03-27T01:51:04.023Z,2.40
2018-03-27T01:52:04.037Z,2.40
2018-03-27T01:53:04.058Z,2.50
2018-03-27T01:54:04.076Z,2.60
2018-03-27T01:55:04.180Z,2.30
2018-03-27T01:56:04.160Z,2.50
2018-03-27T01:57:04.136Z,2.60
2018-03-27T01:58:04.146Z,2.70
2018-03-27T01:59:04.162Z,2.70
2018-03-27T02:00:04.180Z,2.70
2018-03-27T02:01:04.229Z,3.00
2018-03-27T02:02:04.266Z,2.90
2018-03-27T02:03:04.233Z,3.00
2018-03-27T02:04:04.250Z,3.00
2018-03-27T02:05:04.266Z,3.20
2018-03-27T02:06:04.287Z,3.10
2018-03-27T02:07:04.326Z,3.50
2018-03-27T02:08:04.372Z,3.60
2018-03-27T02:09:04.337Z,3.60
2018-03-27T02:10:04.358Z,3.60
2018-03-27T02:11:04.374Z,3.80
2018-03-27T02:12:04.391Z,4.00
2018-03-27T02:13:04.408Z,4.30
2018-03-27T02:14:04.476Z,4.20
2018-03-27T02:15:04.243Z,4.30
2018-03-27T02:16:04.460Z,4.70
2018-03-27T02:17:04.488Z,4.90
2018-03-27T02:18:04.497Z,5.10
2018-03-27T02:19:04.568Z,4.80
2018-03-27T02:20:04.558Z,4.80
2018-03-27T02:21:04.547Z,5.00
2018-03-27T02:22:04.575Z,4.80
2018-03-27T02:23:04.582Z,4.60
2018-03-27T02:24:04.609Z,4.60
2018-03-27T02:25:04.678Z,4.70
2018-03-27T02:26:04.662Z,4.80
2018-03-27T02:27:04.653Z,4.90
2018-03-27T02:28:04.669Z,4.60
2018-03-27T02:29:04.687Z,5.20
2018-03-27T02:30:04.709Z,5.20
2018-03-27T02:31:04.813Z,5.10
2018-03-27T02:32:04.766Z,5.20
2018-03-27T02:33:04.764Z,5.40
2018-03-27T02:34:04.793Z,5.10
2018-03-27T02:35:04.795Z,5.50
2018-03-27T02:36:04.806Z,5.70
2018-03-27T02:37:04.887Z,5.80
2018-03-27T02:38:04.856Z,6.00
2018-03-27T02:39:04.862Z,6.60
2018-03-27T02:40:04.882Z,6.80
2018-03-27T02:41:04.894Z,7.00
2018-03-27T02:42:04.914Z,7.10
2018-03-27T02:43:04.984Z,6.90
2018-03-27T02:44:04.954Z,7.40
2018-03-27T02:45:04.967Z,7.50
2018-03-27T02:46:04.983Z,7.50
2018-03-27T02:47:05.004Z,7.90
2018-03-27T02:48:04.814Z,7.20
2018-03-27T02:49:05.089Z,8.00
2018-03-27T02:50:05.054Z,8.00
2018-03-27T02:51:05.138Z,8.00
2018-03-27T02:52:05.098Z,8.60
2018-03-27T02:53:05.107Z,8.30
2018-03-27T02:54:05.138Z,7.90
2018-03-27T02:55:05.189Z,8.70
2018-03-27T02:56:05.161Z,8.20
2018-03-27T02:57:05.246Z,8.40
2018-03-27T02:58:05.202Z,8.40
2018-03-27T02:59:05.219Z,8.50
2018-03-27T03:00:05.231Z,8.70
2018-03-27T03:01:08.759Z,8.50
2018-03-27T03:02:05.263Z,8.10
2018-03-27T03:03:05.279Z,8.20
2018-03-27T03:04:05.301Z,8.10
2018-03-27T03:05:05.316Z,8.40
2018-03-27T03:06:05.580Z,8.20
2018-03-27T03:07:05.350Z,8.20
2018-03-27T03:08:05.374Z,8.20
2018-03-27T03:09:05.391Z,8.10
2018-03-27T03:10:05.472Z,8.40
2018-03-27T03:11:05.429Z,8.00
2018-03-27T03:12:05.485Z,8.20
2018-03-27T03:13:05.450Z,8.20
2018-03-27T03:14:05.468Z,8.10
2018-03-27T03:15:05.486Z,8.20
2018-03-27T03:16:05.510Z,8.10
2018-03-27T03:17:05.523Z,7.60
2018-03-27T03:18:05.592Z,8.00
2018-03-27T03:19:05.615Z,8.30
2018-03-27T03:20:05.574Z,8.40
2018-03-27T03:21:05.389Z,8.50
2018-03-27T03:22:05.607Z,8.20
2018-03-27T03:23:05.647Z,8.10
2018-03-27T03:24:05.694Z,7.20
2018-03-27T03:25:05.672Z,7.60
2018-03-27T03:26:05.678Z,7.20
2018-03-27T03:27:05.705Z,7.90
2018-03-27T03:28:05.713Z,8.00
2018-03-27T03:29:05.728Z,7.60
2018-03-27T03:30:05.810Z,7.40
2018-03-27T03:31:05.775Z,8.00
2018-03-27T03:32:05.778Z,8.00
2018-03-27T03:33:05.809Z,7.50
2018-03-27T03:34:05.817Z,7.70
2018-03-27T03:35:05.833Z,7.40
2018-03-27T03:36:05.909Z,7.70
2018-03-27T03:37:05.879Z,7.60
2018-03-27T03:38:05.885Z,8.00
2018-03-27T03:39:05.904Z,7.90
2018-03-27T03:40:05.915Z,7.30
2018-03-27T03:41:06.011Z,6.80
2018-03-27T03:42:05.963Z,7.10
2018-03-27T03:43:05.982Z,7.10
2018-03-27T03:44:05.997Z,6.60
2018-03-27T03:45:06.006Z,6.70
2018-03-27T03:46:06.025Z,6.40
2018-03-27T03:47:06.107Z,6.30
2018-03-27T03:48:06.058Z,6.60
2018-03-27T03:49:06.073Z,6.00
2018-03-27T03:50:06.101Z,6.00
2018-03-27T03:51:06.110Z,5.80
2018-03-27T03:52:06.136Z,5.60
2018-03-27T03:53:06.291Z,5.40
2018-03-27T03:54:05.971Z,5.60
2018-03-27T03:55:06.181Z,5.70
2018-03-27T03:56:06.195Z,5.40
2018-03-27T03:57:06.222Z,5.50
2018-03-27T03:58:06.231Z,5.80
2018-03-27T03:59:06.260Z,5.50
2018-03-27T04:00:06.265Z,5.80
2018-03-27T04:01:06.281Z,5.40
2018-03-27T04:02:06.303Z,5.70
2018-03-27T04:03:06.330Z,5.40
2018-03-27T04:04:06.337Z,6.00
2018-03-27T04:05:06.353Z,5.50
2018-03-27T04:06:06.371Z,5.40
2018-03-27T04:07:06.397Z,5.20
2018-03-27T04:08:06.406Z,5.20
2018-03-27T04:09:06.431Z,5.00
2018-03-27T04:10:06.452Z,4.70
2018-03-27T04:11:06.462Z,4.60
2018-03-27T04:12:06.563Z,4.50
2018-03-27T04:13:06.493Z,4.20
2018-03-27T04:14:06.513Z,3.80
2018-03-27T04:15:06.528Z,3.60
2018-03-27T04:16:06.552Z,3.70
2018-03-27T04:17:06.565Z,3.70
2018-03-27T04:18:06.595Z,3.50
2018-03-27T04:19:06.595Z,3.40
2018-03-27T04:20:06.612Z,3.30
2018-03-27T04:21:06.633Z,3.40
2018-03-27T04:22:06.655Z,2.90
2018-03-27T04:23:06.666Z,3.20
2018-03-27T04:24:06.720Z,3.10
2018-03-27T04:25:06.498Z,3.30
2018-03-27T04:26:06.734Z,2.80
2018-03-27T04:27:06.531Z,3.10
2018-03-27T04:28:06.751Z,3.20
2018-03-27T04:29:06.778Z,3.00
2018-03-27T04:30:06.861Z,3.00
2018-03-27T04:31:06.808Z,3.20
2018-03-27T04:32:06.825Z,2.80
2018-03-27T04:33:06.839Z,3.10
2018-03-27T04:34:06.854Z,3.00
2018-03-27T04:35:06.874Z,3.20
2018-03-27T04:36:06.914Z,3.20
2018-03-27T04:37:06.908Z,3.20
2018-03-27T04:38:06.926Z,2.90
2018-03-27T04:39:06.945Z,3.00
2018-03-27T04:40:06.961Z,2.70
2018-03-27T04:41:06.989Z,3.00
2018-03-27T04:42:06.994Z,3.10
2018-03-27T04:43:07.011Z,2.90
2018-03-27T04:44:07.029Z,3.30
2018-03-27T04:45:07.048Z,3.20
2018-03-27T04:46:07.068Z,3.10
2018-03-27T04:47:07.091Z,3.40
2018-03-27T04:48:07.099Z,3.10
2018-03-27T04:49:07.156Z,3.20
2018-03-27T04:50:07.146Z,3.10
2018-03-27T04:51:07.154Z,3.20
2018-03-27T04:52:07.167Z,3.30
2018-03-27T04:53:07.193Z,3.30
2018-03-27T04:54:07.286Z,3.00
2018-03-27T04:55:07.311Z,3.40
2018-03-27T04:56:07.240Z,3.30
2018-03-27T04:57:07.266Z,3.10
2018-03-27T04:58:07.073Z,3.20
2018-03-27T04:59:07.293Z,3.40
2018-03-27T05:00:07.309Z,3.30
2018-03-27T05:01:07.328Z,3.60
2018-03-27T05:02:07.344Z,3.40
2018-03-27T05:03:07.362Z,3.30
2018-03-27T05:04:07.388Z,3.40
2018-03-27T05:05:07.402Z,3.20
2018-03-27T05:06:07.416Z,3.20
2018-03-27T05:07:07.433Z,3.20
2018-03-27T05:08:07.451Z,3.20
2018-03-27T05:09:07.470Z,3.50
2018-03-27T05:10:07.490Z,3.50
2018-03-27T05:11:07.510Z,3.60
2018-03-27T05:12:07.536Z,3.30
2018-03-27T05:13:07.547Z,3.30
2018-03-27T05:14:07.619Z,3.30
2018-03-27T05:15:07.579Z,3.10
2018-03-27T05:16:07.593Z,3.30
2018-03-27T05:17:07.625Z,3.30
2018-03-27T05:18:07.638Z,3.30
2018-03-27T05:19:07.648Z,3.50
2018-03-27T05:20:07.675Z,3.40
2018-03-27T05:21:07.696Z,3.50
2018-03-27T05:22:07.710Z,3.20
2018-03-27T05:23:07.722Z,3.40
2018-03-27T05:24:07.751Z,3.20
2018-03-27T05:25:07.803Z,3.20
2018-03-27T05:26:07.786Z,3.30
2018-03-27T05:27:07.800Z,3.50
2018-03-27T05:28:07.809Z,3.20
2018-03-27T05:29:07.836Z,3.50
2018-03-27T05:30:07.860Z,3.50
2018-03-27T05:31:07.664Z,3.30
2018-03-27T05:32:07.881Z,3.40
2018-03-27T05:33:07.905Z,3.50
2018-03-27T05:34:07.917Z,3.30
2018-03-27T05:35:07.939Z,3.70
2018-03-27T05:36:07.959Z,3.40
2018-03-27T05:37:07.969Z,3.40
2018-03-27T05:38:07.989Z,3.50
2018-03-27T05:39:08.015Z,3.50
2018-03-27T05:40:08.025Z,3.50
2018-03-27T05:41:08.053Z,3.20
2018-03-27T05:42:08.061Z,3.60
2018-03-27T05:43:08.078Z,3.50
2018-03-27T05:44:08.102Z,3.20
2018-03-27T05:45:08.152Z,3.40
2018-03-27T05:46:08.131Z,3.80
2018-03-27T05:47:08.148Z,3.60
2018-03-27T05:48:08.168Z,3.70
2018-03-27T05:49:08.199Z,3.70
2018-03-27T05:50:08.198Z,3.70
2018-03-27T05:51:08.237Z,3.30
2018-03-27T05:52:08.236Z,3.70
2018-03-27T05:53:08.255Z,3.20
2018-03-27T05:54:08.283Z,3.40
2018-03-27T05:55:08.290Z,3.50
2018-03-27T05:56:08.310Z,3.80
2018-03-27T05:57:08.360Z,3.90
2018-03-27T05:58:08.341Z,3.80
2018-03-27T05:59:08.369Z,4.10
2018-03-27T06:00:08.377Z,3.90
2018-03-27T06:01:08.414Z,3.80
2018-03-27T06:02:08.423Z,4.00
2018-03-27T06:03:08.428Z,3.80
2018-03-27T06:04:08.248Z,3.80
2018-03-27T06:05:08.505Z,4.00
2018-03-27T06:06:08.484Z,4.20
2018-03-27T06:07:08.502Z,3.90
2018-03-27T06:08:08.517Z,3.90
2018-03-27T06:09:08.537Z,3.80
2018-03-27T06:10:08.592Z,4.20
2018-03-27T06:11:08.572Z,3.80
2018-03-27T06:12:08.589Z,3.80
2018-03-27T06:13:08.606Z,4.20
2018-03-27T06:14:08.634Z,3.90
2018-03-27T06:15:08.655Z,4.20
2018-03-27T06:16:08.695Z,4.00
2018-03-27T06:17:08.678Z,3.80
2018-03-27T06:18:08.701Z,4.40
2018-03-27T06:19:08.711Z,4.10
2018-03-27T06:20:08.731Z,4.20
2018-03-27T06:21:08.746Z,4.30
2018-03-27T06:22:08.771Z,4.50
2018-03-27T06:23:08.797Z,4.10
2018-03-27T06:24:08.798Z,4.40
2018-03-27T06:25:08.819Z,3.90
2018-03-27T06:26:08.834Z,4.30
2018-03-27T06:27:08.853Z,4.30
2018-03-27T06:28:08.882Z,4.60
2018-03-27T06:29:08.968Z,4.00
2018-03-27T06:30:08.906Z,4.40
2018-03-27T06:31:08.927Z,4.40
2018-03-27T06:32:08.939Z,4.30
2018-03-27T06:33:08.975Z,4.50
2018-03-27T06:34:08.981Z,4.40
2018-03-27T06:35:09.006Z,4.70
2018-03-27T06:36:09.097Z,4.40
2018-03-27T06:37:09.031Z,4.40
2018-03-27T06:38:09.047Z,4.40
2018-03-27T06:39:09.065Z,4.30
2018-03-27T06:40:09.083Z,4.50
2018-03-27T06:41:09.101Z,4.50
2018-03-27T06:42:09.186Z,4.50
2018-03-27T06:43:09.136Z,4.70
2018-03-27T06:44:09.159Z,4.40
2018-03-27T06:45:09.183Z,4.40
2018-03-27T06:46:09.192Z,3.90
2018-03-27T06:47:09.216Z,4.00
2018-03-27T06:48:09.226Z,4.20
2018-03-27T06:49:09.246Z,4.40
2018-03-27T06:50:09.263Z,4.40
2018-03-27T06:51:09.278Z,4.50
2018-03-27T06:52:09.294Z,4.80
2018-03-27T06:53:09.312Z,4.30
2018-03-27T06:54:09.334Z,4.60
2018-03-27T06:55:09.354Z,4.30
2018-03-27T06:56:09.367Z,4.50
2018-03-27T06:57:09.388Z,4.40
2018-03-27T06:58:09.404Z,4.70
2018-03-27T06:59:09.422Z,4.20
2018-03-27T07:00:09.442Z,4.30
2018-03-27T07:01:09.517Z,4.10
2018-03-27T07:02:09.476Z,4.00
2018-03-27T07:03:09.529Z,4.00
2018-03-27T07:04:09.517Z,4.20
2018-03-27T07:05:09.536Z,4.40
2018-03-27T07:06:09.547Z,4.20
2018-03-27T07:07:09.605Z,4.20
2018-03-27T07:08:09.615Z,4.60
2018-03-27T07:09:09.611Z,4.50
2018-03-27T07:10:09.626Z,4.00
2018-03-27T07:11:09.649Z,4.00
2018-03-27T07:12:09.653Z,3.90
2018-03-27T07:13:09.755Z,4.50
2018-03-27T07:14:09.699Z,4.10
2018-03-27T07:15:09.707Z,3.80
2018-03-27T07:16:09.559Z,4.20
2018-03-27T07:17:09.742Z,4.20
2018-03-27T07:18:09.763Z,4.60
2018-03-27T07:19:09.791Z,4.80
2018-03-27T07:20:09.804Z,4.20
2018-03-27T07:21:09.824Z,5.40
2018-03-27T07:22:09.838Z,5.40
2018-03-27T07:23:09.853Z,4.50
2018-03-27T07:24:09.868Z,5.20
2018-03-27T07:25:09.884Z,4.90
2018-03-27T07:26:09.990Z,5.60
2018-03-27T07:27:09.930Z,5.60
2018-03-27T07:28:09.950Z,5.70
2018-03-27T07:29:09.957Z,5.60
2018-03-27T07:30:09.978Z,6.30
2018-03-27T07:31:10.003Z,5.40
2018-03-27T07:32:10.027Z,6.10
2018-03-27T07:33:10.030Z,4.40
2018-03-27T07:34:10.048Z,5.80
2018-03-27T07:35:10.067Z,6.30
2018-03-27T07:36:10.085Z,4.80
2018-03-27T07:37:10.107Z,4.50
2018-03-27T07:38:10.123Z,4.10
2018-03-27T07:39:10.160Z,3.80
2018-03-27T07:40:10.160Z,4.10
2018-03-27T07:41:10.235Z,3.60
2018-03-27T07:42:10.202Z,3.50
2018-03-27T07:43:10.233Z,3.60
2018-03-27T07:44:10.249Z,3.20
2018-03-27T07:45:10.269Z,3.40
2018-03-27T07:46:10.282Z,3.50
2018-03-27T07:47:10.353Z,3.50
2018-03-27T07:48:10.330Z,3.50
2018-03-27T07:49:10.138Z,3.20
2018-03-27T07:50:10.362Z,3.40
2018-03-27T07:51:10.195Z,3.30
2018-03-27T07:52:10.409Z,3.40
2018-03-27T07:53:10.427Z,2.80
2018-03-27T07:54:10.452Z,2.80
2018-03-27T07:55:10.471Z,2.60
2018-03-27T07:56:10.491Z,2.40
2018-03-27T07:57:10.566Z,2.60
2018-03-27T07:58:10.559Z,2.40
2018-03-27T07:59:10.605Z,2.40
2018-03-27T08:00:10.574Z,2.30
2018-03-27T08:01:10.587Z,2.40
2018-03-27T08:02:10.629Z,2.60
2018-03-27T08:03:10.639Z,2.40
2018-03-27T08:04:10.661Z,2.00
2018-03-27T08:05:10.722Z,2.20
2018-03-27T08:06:10.694Z,2.20
2018-03-27T08:07:10.714Z,2.10
2018-03-27T08:08:10.736Z,2.30
2018-03-27T08:09:10.759Z,2.80
2018-03-27T08:10:10.788Z,3.20
2018-03-27T08:11:10.855Z,3.60
2018-03-27T08:12:10.830Z,3.40
2018-03-27T08:13:10.846Z,3.80
2018-03-27T08:14:10.866Z,3.60
2018-03-27T08:15:10.888Z,3.10
2018-03-27T08:16:10.960Z,3.30
2018-03-27T08:17:10.980Z,3.50
2018-03-27T08:18:10.951Z,3.10
2018-03-27T08:19:10.984Z,3.30
2018-03-27T08:20:10.997Z,3.60
2018-03-27T08:21:11.017Z,3.90
2018-03-27T08:22:11.040Z,2.70
2018-03-27T08:23:11.063Z,3.30
2018-03-27T08:24:11.023Z,3.00
2018-03-27T08:25:11.106Z,2.70
2018-03-27T08:26:11.136Z,2.90
2018-03-27T08:27:11.148Z,3.10
2018-03-27T08:28:11.197Z,3.30
2018-03-27T08:29:11.190Z,3.30
2018-03-27T08:30:11.214Z,3.00
2018-03-27T08:31:11.238Z,3.40
2018-03-27T08:32:11.267Z,2.70
2018-03-27T08:33:11.279Z,2.40
2018-03-27T08:34:11.309Z,2.40
2018-03-27T08:35:11.375Z,2.50
2018-03-27T08:36:11.411Z,2.40
2018-03-27T08:37:11.365Z,3.00
2018-03-27T08:38:11.389Z,3.00
2018-03-27T08:39:11.419Z,3.50
2018-03-27T08:40:11.431Z,3.00
2018-03-27T08:41:11.513Z,3.30
2018-03-27T08:42:11.478Z,3.10
2018-03-27T08:43:11.499Z,2.90
2018-03-27T08:44:11.523Z,2.90
2018-03-27T08:45:11.545Z,2.70
2018-03-27T08:46:11.569Z,2.70
2018-03-27T08:48:11.620Z,2.90
2018-03-27T08:49:11.632Z,2.60
2018-03-27T08:50:11.657Z,3.00
2018-03-27T08:51:11.692Z,2.70
2018-03-27T08:52:11.727Z,2.80
2018-03-27T08:53:11.784Z,2.80
2018-03-27T08:54:11.769Z,3.20
2018-03-27T08:55:11.771Z,2.90
2018-03-27T08:56:11.830Z,2.80
2018-03-27T08:57:11.613Z,2.70
2018-03-27T08:58:11.837Z,2.40
2018-03-27T08:59:11.930Z,2.30
2018-03-27T09:00:11.883Z,2.20
2018-03-27T09:01:11.912Z,2.70
2018-03-27T09:02:11.928Z,1.90
2018-03-27T09:03:11.949Z,1.90
2018-03-27T09:04:11.973Z,2.60
2018-03-27T09:05:12.047Z,2.50
2018-03-27T09:06:12.035Z,2.10
2018-03-27T09:07:12.045Z,2.10
2018-03-27T09:08:12.063Z,2.00
2018-03-27T09:09:12.088Z,2.10
2018-03-27T09:10:12.114Z,1.90
2018-03-27T09:11:12.189Z,2.00
2018-03-27T09:12:12.165Z,2.00
2018-03-27T09:13:12.194Z,1.90
2018-03-27T09:14:12.204Z,2.10
2018-03-27T09:15:12.280Z,2.20
2018-03-27T09:16:12.260Z,2.00
2018-03-27T09:17:12.284Z,2.20
2018-03-27T09:18:12.301Z,2.10
2018-03-27T09:19:12.324Z,2.50
2018-03-27T09:20:12.355Z,1.90
2018-03-27T09:21:12.380Z,2.10
2018-03-27T09:22:12.395Z,2.30
2018-03-27T09:23:12.418Z,2.20
2018-03-27T09:24:12.465Z,2.00
2018-03-27T09:25:12.466Z,2.10
2018-03-27T09:26:12.487Z,2.10
2018-03-27T09:27:12.522Z,2.10
2018-03-27T09:28:12.542Z,2.20
2018-03-27T09:29:12.616Z,2.10
2018-03-27T09:30:12.381Z,2.20
2018-03-27T09:31:12.638Z,1.90
2018-03-27T09:33:12.462Z,1.80
2018-03-27T09:34:12.688Z,1.90
2018-03-27T09:35:12.760Z,1.90
2018-03-27T09:36:12.765Z,1.80
2018-03-27T09:37:12.754Z,2.00
2018-03-27T09:38:12.787Z,1.70
2018-03-27T09:39:12.800Z,1.80
2018-03-27T09:40:12.834Z,1.90
2018-03-27T09:41:12.899Z,1.80
2018-03-27T09:42:12.882Z,2.40
2018-03-27T09:43:12.898Z,2.00
2018-03-27T09:44:12.920Z,2.00
2018-03-27T09:45:12.954Z,1.90
2018-03-27T09:46:12.968Z,1.90
2018-03-27T09:47:13.048Z,1.90
2018-03-27T09:48:13.017Z,1.90
2018-03-27T09:49:13.044Z,1.90
2018-03-27T09:50:13.071Z,1.90
2018-03-27T09:51:13.091Z,1.80
2018-03-27T09:52:13.129Z,1.70
2018-03-27T09:53:13.143Z,1.60
2018-03-27T09:54:13.174Z,1.80
2018-03-27T09:55:13.189Z,1.70
2018-03-27T09:56:13.215Z,1.90
2018-03-27T09:57:13.243Z,2.10
2018-03-27T09:58:13.266Z,1.70
2018-03-27T09:59:13.342Z,1.90
2018-03-27T10:00:13.320Z,2.00
2018-03-27T10:01:13.134Z,2.10
2018-03-27T10:02:13.359Z,2.20
2018-03-27T10:03:13.187Z,1.90
2018-03-27T10:04:13.411Z,2.10
2018-03-27T10:05:13.435Z,1.90
2018-03-27T10:06:13.461Z,2.00
2018-03-27T10:07:13.484Z,2.10
2018-03-27T10:08:13.510Z,2.10
2018-03-27T10:09:13.542Z,2.40
2018-03-27T10:10:13.571Z,1.90
2018-03-27T10:11:13.588Z,1.80
2018-03-27T10:12:13.619Z,1.90
2018-03-27T10:13:13.633Z,2.00
2018-03-27T10:14:13.701Z,2.10
2018-03-27T10:15:13.686Z,2.10
2018-03-27T10:16:13.717Z,2.10
2018-03-27T10:17:13.734Z,2.10
2018-03-27T10:18:13.770Z,2.20
2018-03-27T10:19:13.783Z,2.20
2018-03-27T10:20:13.807Z,2.20
2018-03-27T10:21:13.833Z,2.00
2018-03-27T10:22:13.918Z,2.20
2018-03-27T10:23:13.889Z,2.40
2018-03-27T10:24:13.909Z,3.50
2018-03-27T10:25:13.943Z,2.50
2018-03-27T10:26:13.962Z,2.40
2018-03-27T10:27:14.013Z,2.40
2018-03-27T10:28:14.008Z,2.70
2018-03-27T10:29:14.042Z,2.80
2018-03-27T10:30:14.060Z,2.60
2018-03-27T10:31:14.091Z,2.40
2018-03-27T10:32:14.112Z,2.70
2018-03-27T10:33:14.145Z,2.70
2018-03-27T10:34:14.168Z,2.50
2018-03-27T10:35:14.237Z,2.90
2018-03-27T10:36:14.209Z,2.70
2018-03-27T10:37:14.241Z,4.20
2018-03-27T10:38:14.259Z,3.00
2018-03-27T10:39:14.287Z,3.00
2018-03-27T10:40:14.307Z,2.70
2018-03-27T10:41:14.339Z,3.00
2018-03-27T10:42:14.358Z,3.00
2018-03-27T10:43:14.385Z,3.00
2018-03-27T10:44:14.418Z,2.90
2018-03-27T10:45:14.434Z,2.80
2018-03-27T10:46:14.526Z,3.00
2018-03-27T10:47:14.536Z,3.00
2018-03-27T10:48:14.520Z,3.10
2018-03-27T10:49:14.546Z,3.20
2018-03-27T10:50:14.570Z,2.80
2018-03-27T10:51:14.588Z,3.70
2018-03-27T10:52:14.611Z,2.30
2018-03-27T10:53:14.689Z,2.30
2018-03-27T10:54:14.665Z,2.40
2018-03-27T10:55:14.692Z,2.30
2018-03-27T10:56:14.715Z,2.20
2018-03-27T10:57:14.739Z,2.10
2018-03-27T10:58:14.768Z,2.60
2018-03-27T10:59:14.815Z,2.40
2018-03-27T11:00:14.825Z,2.60
2018-03-27T11:01:14.866Z,2.50
2018-03-27T11:02:14.900Z,2.50
2018-03-27T11:03:14.908Z,2.40
2018-03-27T11:04:14.923Z,2.40
2018-03-27T11:05:15.020Z,2.50
2018-03-27T11:06:14.978Z,2.60
2018-03-27T11:07:15.001Z,2.60
2018-03-27T11:08:15.024Z,2.70
2018-03-27T11:09:15.052Z,2.50
2018-03-27T11:10:15.082Z,2.80
2018-03-27T11:11:15.153Z,2.50
2018-03-27T11:12:15.133Z,5.50
2018-03-27T11:13:14.984Z,2.70
2018-03-27T11:14:15.181Z,6.20
2018-03-27T11:15:15.215Z,4.30
2018-03-27T11:16:15.234Z,2.40
2018-03-27T11:17:15.262Z,2.60
2018-03-27T11:18:15.286Z,2.50
2018-03-27T11:19:15.323Z,2.40
2018-03-27T11:20:15.339Z,2.70
2018-03-27T11:21:15.366Z,2.30
2018-03-27T11:22:15.424Z,2.80
2018-03-27T11:23:15.421Z,2.80
2018-03-27T11:24:15.471Z,2.60
2018-03-27T11:25:15.479Z,2.50
2018-03-27T11:26:15.508Z,2.30
2018-03-27T11:27:15.526Z,2.50
2018-03-27T11:28:15.562Z,2.40
2018-03-27T11:29:15.645Z,2.60
2018-03-27T11:30:15.694Z,2.60
2018-03-27T11:31:15.636Z,2.50
2018-03-27T11:32:15.670Z,2.50
2018-03-27T11:33:15.691Z,2.90
2018-03-27T11:34:15.724Z,2.60
2018-03-27T11:35:15.799Z,2.70
2018-03-27T11:36:15.777Z,2.40
2018-03-27T11:37:15.798Z,2.50
2018-03-27T11:38:15.825Z,2.30
2018-03-27T11:39:15.857Z,2.50
2018-03-27T11:40:15.886Z,2.50
2018-03-27T11:41:15.965Z,3.10
2018-03-27T11:42:15.936Z,2.80
2018-03-27T11:43:15.958Z,3.00
2018-03-27T11:44:15.988Z,2.40
2018-03-27T11:45:16.016Z,2.70
2018-03-27T11:46:15.851Z,3.00
2018-03-27T11:47:16.070Z,2.40
2018-03-27T11:48:16.101Z,2.70
2018-03-27T11:49:16.125Z,2.30
2018-03-27T11:50:16.156Z,2.40
2018-03-27T11:51:16.178Z,2.60
2018-03-27T11:52:16.210Z,2.90
2018-03-27T11:53:16.279Z,2.40
2018-03-27T11:54:16.266Z,2.30
2018-03-27T11:55:16.305Z,2.50
2018-03-27T11:56:16.311Z,2.80
2018-03-27T11:57:16.339Z,2.70
2018-03-27T11:58:16.366Z,2.80
2018-03-27T11:59:16.455Z,2.40
2018-03-27T12:00:16.423Z,2.20
2018-03-27T12:01:16.455Z,2.40
2018-03-27T12:02:16.478Z,2.40
2018-03-27T12:03:16.512Z,2.40
2018-03-27T12:04:16.541Z,2.50
2018-03-27T12:05:16.610Z,2.70
2018-03-27T12:06:16.583Z,2.30
2018-03-27T12:07:16.611Z,2.60
2018-03-27T12:08:16.709Z,2.60
2018-03-27T12:09:16.667Z,2.70
2018-03-27T12:10:16.690Z,2.80
2018-03-27T12:11:16.722Z,2.70
2018-03-27T12:12:16.758Z,2.60
2018-03-27T12:13:16.772Z,2.70
2018-03-27T12:14:16.802Z,2.70
2018-03-27T12:15:16.872Z,2.70
2018-03-27T12:16:16.858Z,2.70
2018-03-27T12:17:16.937Z,2.50
2018-03-27T12:18:16.911Z,2.60
2018-03-27T12:19:16.738Z,2.50
2018-03-27T12:20:16.963Z,2.60
2018-03-27T12:21:16.998Z,2.60
2018-03-27T12:22:17.026Z,3.30
2018-03-27T12:23:17.052Z,2.80
2018-03-27T12:24:17.075Z,2.80
2018-03-27T12:25:17.103Z,2.60
2018-03-27T12:26:17.142Z,3.00
2018-03-27T12:27:16.966Z,2.50
2018-03-27T12:28:17.191Z,3.10
2018-03-27T12:29:17.223Z,2.50
2018-03-27T12:30:17.252Z,2.70
2018-03-27T12:31:17.273Z,2.80
2018-03-27T12:32:17.306Z,3.20
2018-03-27T12:33:17.327Z,2.50
2018-03-27T12:34:17.352Z,2.60
2018-03-27T12:35:17.441Z,2.40
2018-03-27T12:36:17.410Z,2.40
2018-03-27T12:37:17.436Z,2.30
2018-03-27T12:38:17.474Z,2.30
2018-03-27T12:39:17.494Z,3.20
2018-03-27T12:40:17.560Z,2.90
2018-03-27T12:41:17.549Z,2.80
2018-03-27T12:42:17.636Z,2.90
2018-03-27T12:43:17.604Z,3.10
2018-03-27T12:44:17.640Z,3.00
2018-03-27T12:45:17.663Z,3.20
2018-03-27T12:46:17.690Z,2.80
2018-03-27T12:47:17.768Z,3.00
2018-03-27T12:48:17.745Z,3.00
2018-03-27T12:49:17.780Z,2.90
2018-03-27T12:50:17.832Z,2.90
2018-03-27T12:51:17.826Z,3.00
2018-03-27T12:52:17.852Z,2.90
2018-03-27T12:53:17.975Z,2.80
2018-03-27T12:54:17.918Z,3.70
2018-03-27T12:55:17.939Z,2.90
2018-03-27T12:56:17.966Z,2.80
2018-03-27T12:57:18.001Z,2.70
2018-03-27T12:58:18.020Z,2.70
2018-03-27T12:59:18.112Z,2.80
2018-03-27T13:00:18.075Z,3.80
2018-03-27T13:01:18.111Z,2.80
2018-03-27T13:02:18.149Z,2.70
2018-03-27T13:03:18.168Z,2.50
2018-03-27T13:04:18.189Z,2.90
2018-03-27T13:05:18.246Z,2.50
2018-03-27T13:06:18.242Z,2.90
2018-03-27T13:07:18.266Z,2.50
2018-03-27T13:08:18.311Z,2.50
2018-03-27T13:09:18.332Z,2.50
2018-03-27T13:10:18.350Z,2.30
2018-03-27T13:11:18.432Z,2.40
2018-03-27T13:12:18.403Z,2.30
2018-03-27T13:13:18.440Z,2.20
2018-03-27T13:14:18.470Z,2.40
2018-03-27T13:15:18.489Z,2.30
2018-03-27T13:16:18.525Z,2.90
2018-03-27T13:17:18.545Z,2.00
2018-03-27T13:18:18.568Z,2.00
2018-03-27T13:19:18.605Z,2.30
2018-03-27T13:20:18.628Z,1.90